createdAt,value
2018-10-05T00:08:36.684Z,0.0
2018-10-05T00:18:47.919Z,0.0
2018-10-05T00:29:02.195Z,0.0
2018-10-05T00:56:02.746Z,0.0
2018-10-05T01:06:14.125Z,0.0
2018-10-05T01:16:59.583Z,0.0
2018-10-05T01:27:13.147Z,0.0
2018-10-05T01:37:27.142Z,0.0
2018-10-05T01:47:41.143Z,0.0
2018-10-05T01:57:54.740Z,0.0
2018-10-05T02:08:08.559Z,0.0
2018-10-05T02:18:22.667Z,0.0
2018-10-05T02:28:36.098Z,0.0
2018-10-05T02:38:50.443Z,0.0
2018-10-05T02:49:04.590Z,0.0
2018-10-05T02:59:18.802Z,0.0
2018-10-05T05:14:41.822Z,0.0
2018-10-05T05:48:53.230Z,328.0
2018-10-05T06:38:30.371Z,2332.0
2018-10-05T07:03:57.349Z,3516.0
2018-10-05T08:04:08.553Z,43232.0
2018-10-05T08:49:42.717Z,62496.0
2018-10-05T09:15:33.803Z,58848.0
2018-10-05T09:29:18.680Z,69120.0
2018-10-05T09:42:02.354Z,75488.0
2018-10-05T09:53:24.369Z,82976.0
2018-10-05T10:04:17.065Z,78720.0
2018-10-05T10:14:32.852Z,78240.0
2018-10-05T10:26:39.176Z,79040.0
2018-10-05T10:37:00.716Z,78944.0
2018-10-05T10:47:50.428Z,89184.0
2018-10-05T10:58:05.968Z,87872.0
2018-10-05T11:08:51.860Z,90848.0
2018-10-05T11:19:06.439Z,86592.0
2018-10-05T11:29:20.529Z,85920.0
2018-10-05T11:39:34.671Z,85344.0
2018-10-05T11:49:47.814Z,82176.0
2018-10-05T12:00:16.026Z,89952.0
2018-10-05T12:11:12.990Z,77632.0
2018-10-05T12:47:29.844Z,82624.0
2018-10-05T12:59:34.104Z,76800.0
2018-10-05T13:11:03.045Z,80160.0
2018-10-05T13:21:54.130Z,72480.0
2018-10-05T13:33:57.513Z,65856.0
2018-10-05T13:44:25.154Z,67136.0
2018-10-05T13:54:41.471Z,62976.0
2018-10-05T14:06:11.011Z,49056.0
2018-10-05T14:41:16.266Z,23520.0
2018-10-05T15:14:30.501Z,4380.0
2018-10-05T15:27:53.596Z,4004.0
2018-10-05T15:55:50.353Z,3008.0
2018-10-05T16:07:39.841Z,2436.0
2018-10-05T16:18:38.510Z,1944.0
2018-10-05T16:29:33.187Z,1392.0
2018-10-05T16:40:56.013Z,888.0
2018-10-05T16:51:45.834Z,484.0
2018-10-05T17:04:56.290Z,144.0
2018-10-05T17:40:09.637Z,0.0
2018-10-05T18:23:45.505Z,0.0
2018-10-05T18:56:10.715Z,0.0
2018-10-05T19:27:07.666Z,0.0
2018-10-05T19:38:07.436Z,0.0
2018-10-05T20:05:35.029Z,0.0
2018-10-05T20:15:52.191Z,0.0
2018-10-05T20:27:05.686Z,0.0
2018-10-05T20:37:55.317Z,0.0
2018-10-05T20:51:53.633Z,0.0
2018-10-05T22:19:12.476Z,0.0
2018-10-05T23:03:56.852Z,0.0
2018-10-05T23:25:11.369Z,0.0
2018-10-05T23:35:27.449Z,0.0
